sensor_id;sensor_type;location;lat;lon;timestamp;P1;durP1;ratioP1;P2;durP2;ratioP2
70832;SDS011;71099;59.528;17.886;2023-11-21T00:01:26;4.47;;;2.80;;
70832;SDS011;71099;59.528;17.886;2023-11-21T00:03:52;23.35;;;3.92;;
70832;SDS011;71099;59.528;17.886;2023-11-21T00:06:20;28.98;;;4.57;;
70832;SDS011;71099;59.528;17.886;2023-11-21T00:08:45;7.10;;;2.95;;
70832;SDS011;71099;59.528;17.886;2023-11-21T00:11:11;94.07;;;8.63;;
70832;SDS011;71099;59.528;17.886;2023-11-21T00:13:36;7.25;;;3.40;;
70832;SDS011;71099;59.528;17.886;2023-11-21T00:16:02;9.73;;;3.53;;
70832;SDS011;71099;59.528;17.886;2023-11-21T00:18:29;8.32;;;2.72;;
70832;SDS011;71099;59.528;17.886;2023-11-21T00:20:54;4.13;;;2.80;;
70832;SDS011;71099;59.528;17.886;2023-11-21T00:23:20;3.53;;;2.75;;
70832;SDS011;71099;59.528;17.886;2023-11-21T00:25:45;11.57;;;3.38;;
70832;SDS011;71099;59.528;17.886;2023-11-21T00:28:11;5.35;;;3.25;;
70832;SDS011;71099;59.528;17.886;2023-11-21T00:30:36;11.05;;;3.20;;
70832;SDS011;71099;59.528;17.886;2023-11-21T00:33:02;5.28;;;2.83;;
70832;SDS011;71099;59.528;17.886;2023-11-21T00:35:27;7.18;;;2.85;;
70832;SDS011;71099;59.528;17.886;2023-11-21T00:37:52;7.85;;;3.75;;
70832;SDS011;71099;59.528;17.886;2023-11-21T00:40:18;4.60;;;3.20;;
70832;SDS011;71099;59.528;17.886;2023-11-21T00:42:47;10.75;;;3.40;;
70832;SDS011;71099;59.528;17.886;2023-11-21T00:45:12;5.28;;;2.95;;
70832;SDS011;71099;59.528;17.886;2023-11-21T00:47:38;13.52;;;3.28;;
70832;SDS011;71099;59.528;17.886;2023-11-21T00:50:04;7.40;;;3.50;;
70832;SDS011;71099;59.528;17.886;2023-11-21T00:52:31;9.00;;;3.35;;
70832;SDS011;71099;59.528;17.886;2023-11-21T00:54:57;3.80;;;2.80;;
70832;SDS011;71099;59.528;17.886;2023-11-21T00:57:25;4.30;;;2.85;;
70832;SDS011;71099;59.528;17.886;2023-11-21T00:59:50;14.95;;;4.00;;
70832;SDS011;71099;59.528;17.886;2023-11-21T01:02:16;4.50;;;2.33;;
70832;SDS011;71099;59.528;17.886;2023-11-21T01:04:41;4.25;;;3.50;;
70832;SDS011;71099;59.528;17.886;2023-11-21T01:07:06;15.13;;;3.65;;
70832;SDS011;71099;59.528;17.886;2023-11-21T01:09:32;5.45;;;2.65;;
70832;SDS011;71099;59.528;17.886;2023-11-21T01:11:57;7.88;;;2.47;;
70832;SDS011;71099;59.528;17.886;2023-11-21T01:14:24;13.45;;;2.90;;
70832;SDS011;71099;59.528;17.886;2023-11-21T01:16:51;8.10;;;3.28;;
70832;SDS011;71099;59.528;17.886;2023-11-21T01:19:17;11.00;;;3.03;;
70832;SDS011;71099;59.528;17.886;2023-11-21T01:21:42;3.20;;;2.53;;
70832;SDS011;71099;59.528;17.886;2023-11-21T01:24:08;5.32;;;3.08;;
70832;SDS011;71099;59.528;17.886;2023-11-21T01:26:33;4.80;;;3.60;;
70832;SDS011;71099;59.528;17.886;2023-11-21T01:28:59;13.00;;;3.65;;
70832;SDS011;71099;59.528;17.886;2023-11-21T01:31:24;9.57;;;3.22;;
70832;SDS011;71099;59.528;17.886;2023-11-21T01:33:54;11.13;;;3.60;;
70832;SDS011;71099;59.528;17.886;2023-11-21T01:36:20;7.57;;;3.53;;
70832;SDS011;71099;59.528;17.886;2023-11-21T01:38:46;6.15;;;2.95;;
70832;SDS011;71099;59.528;17.886;2023-11-21T01:41:13;5.53;;;3.20;;
70832;SDS011;71099;59.528;17.886;2023-11-21T01:43:39;9.75;;;3.13;;
70832;SDS011;71099;59.528;17.886;2023-11-21T01:46:05;7.60;;;3.05;;
70832;SDS011;71099;59.528;17.886;2023-11-21T01:48:31;5.20;;;2.88;;
70832;SDS011;71099;59.528;17.886;2023-11-21T01:50:58;4.88;;;3.03;;
70832;SDS011;71099;59.528;17.886;2023-11-21T01:53:26;6.25;;;3.65;;
70832;SDS011;71099;59.528;17.886;2023-11-21T01:55:53;8.15;;;3.22;;
70832;SDS011;71099;59.528;17.886;2023-11-21T01:58:20;8.95;;;3.60;;
70832;SDS011;71099;59.528;17.886;2023-11-21T02:00:46;5.90;;;3.53;;
70832;SDS011;71099;59.528;17.886;2023-11-21T02:03:15;5.68;;;3.22;;
70832;SDS011;71099;59.528;17.886;2023-11-21T02:05:41;10.90;;;3.85;;
70832;SDS011;71099;59.528;17.886;2023-11-21T02:08:07;6.60;;;3.22;;
70832;SDS011;71099;59.528;17.886;2023-11-21T02:10:34;6.18;;;3.30;;
70832;SDS011;71099;59.528;17.886;2023-11-21T02:13:02;9.07;;;3.72;;
70832;SDS011;71099;59.528;17.886;2023-11-21T02:15:27;9.05;;;3.28;;
70832;SDS011;71099;59.528;17.886;2023-11-21T02:17:54;6.25;;;3.78;;
70832;SDS011;71099;59.528;17.886;2023-11-21T02:20:22;6.15;;;3.10;;
70832;SDS011;71099;59.528;17.886;2023-11-21T02:22:52;8.27;;;3.30;;
70832;SDS011;71099;59.528;17.886;2023-11-21T02:27:52;10.85;;;3.50;;
70832;SDS011;71099;59.528;17.886;2023-11-21T02:30:19;14.45;;;4.50;;
70832;SDS011;71099;59.528;17.886;2023-11-21T02:32:47;7.97;;;3.28;;
70832;SDS011;71099;59.528;17.886;2023-11-21T02:35:13;4.45;;;3.22;;
70832;SDS011;71099;59.528;17.886;2023-11-21T02:37:38;5.68;;;3.40;;
70832;SDS011;71099;59.528;17.886;2023-11-21T02:40:06;3.95;;;2.97;;
70832;SDS011;71099;59.528;17.886;2023-11-21T02:42:34;5.45;;;2.72;;
70832;SDS011;71099;59.528;17.886;2023-11-21T02:45:00;5.70;;;2.97;;
70832;SDS011;71099;59.528;17.886;2023-11-21T02:47:25;6.28;;;3.03;;
70832;SDS011;71099;59.528;17.886;2023-11-21T02:49:50;5.53;;;2.97;;
70832;SDS011;71099;59.528;17.886;2023-11-21T02:52:17;6.70;;;2.78;;
70832;SDS011;71099;59.528;17.886;2023-11-21T02:54:43;6.35;;;3.70;;
70832;SDS011;71099;59.528;17.886;2023-11-21T02:57:08;13.93;;;3.53;;
70832;SDS011;71099;59.528;17.886;2023-11-21T02:59:33;4.53;;;3.17;;
70832;SDS011;71099;59.528;17.886;2023-11-21T03:01:59;6.10;;;2.92;;
70832;SDS011;71099;59.528;17.886;2023-11-21T03:04:25;5.78;;;3.22;;
70832;SDS011;71099;59.528;17.886;2023-11-21T03:06:51;2.88;;;2.28;;
70832;SDS011;71099;59.528;17.886;2023-11-21T03:09:16;3.55;;;2.45;;
70832;SDS011;71099;59.528;17.886;2023-11-21T03:11:42;4.38;;;2.95;;
70832;SDS011;71099;59.528;17.886;2023-11-21T03:14:07;4.18;;;2.72;;
70832;SDS011;71099;59.528;17.886;2023-11-21T03:16:33;3.75;;;2.95;;
70832;SDS011;71099;59.528;17.886;2023-11-21T03:18:58;3.10;;;2.28;;
70832;SDS011;71099;59.528;17.886;2023-11-21T03:21:24;3.17;;;2.50;;
70832;SDS011;71099;59.528;17.886;2023-11-21T03:23:51;6.55;;;3.35;;
70832;SDS011;71099;59.528;17.886;2023-11-21T03:26:17;3.35;;;2.08;;
70832;SDS011;71099;59.528;17.886;2023-11-21T03:28:42;5.05;;;2.78;;
70832;SDS011;71099;59.528;17.886;2023-11-21T03:31:07;3.40;;;2.78;;
70832;SDS011;71099;59.528;17.886;2023-11-21T03:33:34;3.75;;;2.30;;
70832;SDS011;71099;59.528;17.886;2023-11-21T03:36:00;3.80;;;2.28;;
70832;SDS011;71099;59.528;17.886;2023-11-21T03:38:25;3.30;;;2.25;;
70832;SDS011;71099;59.528;17.886;2023-11-21T03:40:51;2.80;;;2.08;;
70832;SDS011;71099;59.528;17.886;2023-11-21T03:43:16;3.65;;;2.22;;
70832;SDS011;71099;59.528;17.886;2023-11-21T03:45:42;2.83;;;2.10;;
70832;SDS011;71099;59.528;17.886;2023-11-21T03:48:07;3.28;;;2.55;;
70832;SDS011;71099;59.528;17.886;2023-11-21T03:50:33;2.17;;;1.92;;
70832;SDS011;71099;59.528;17.886;2023-11-21T03:52:59;3.13;;;2.50;;
70832;SDS011;71099;59.528;17.886;2023-11-21T03:55:25;8.15;;;3.67;;
70832;SDS011;71099;59.528;17.886;2023-11-21T03:57:51;2.97;;;2.20;;
70832;SDS011;71099;59.528;17.886;2023-11-21T04:00:17;3.72;;;2.25;;
70832;SDS011;71099;59.528;17.886;2023-11-21T04:02:42;4.93;;;1.90;;
70832;SDS011;71099;59.528;17.886;2023-11-21T04:05:08;6.25;;;1.90;;
70832;SDS011;71099;59.528;17.886;2023-11-21T04:07:34;2.70;;;2.30;;
70832;SDS011;71099;59.528;17.886;2023-11-21T04:10:00;2.50;;;2.22;;
70832;SDS011;71099;59.528;17.886;2023-11-21T04:12:25;3.33;;;2.10;;
70832;SDS011;71099;59.528;17.886;2023-11-21T04:14:51;2.97;;;1.98;;
70832;SDS011;71099;59.528;17.886;2023-11-21T04:17:19;1.98;;;1.55;;
70832;SDS011;71099;59.528;17.886;2023-11-21T04:19:45;2.78;;;1.73;;
70832;SDS011;71099;59.528;17.886;2023-11-21T04:22:11;6.38;;;2.15;;
70832;SDS011;71099;59.528;17.886;2023-11-21T04:24:37;2.92;;;1.80;;
70832;SDS011;71099;59.528;17.886;2023-11-21T04:27:02;2.83;;;1.73;;
70832;SDS011;71099;59.528;17.886;2023-11-21T04:29:28;2.90;;;2.10;;
70832;SDS011;71099;59.528;17.886;2023-11-21T04:31:53;2.47;;;2.10;;
70832;SDS011;71099;59.528;17.886;2023-11-21T04:34:19;2.65;;;2.20;;
70832;SDS011;71099;59.528;17.886;2023-11-21T04:36:44;4.60;;;3.22;;
70832;SDS011;71099;59.528;17.886;2023-11-21T04:39:09;2.55;;;1.73;;
70832;SDS011;71099;59.528;17.886;2023-11-21T04:41:36;1.85;;;1.30;;
70832;SDS011;71099;59.528;17.886;2023-11-21T04:44:04;3.78;;;1.77;;
70832;SDS011;71099;59.528;17.886;2023-11-21T04:46:30;2.28;;;1.83;;
70832;SDS011;71099;59.528;17.886;2023-11-21T04:48:56;2.10;;;1.80;;
70832;SDS011;71099;59.528;17.886;2023-11-21T04:51:21;2.63;;;1.65;;
70832;SDS011;71099;59.528;17.886;2023-11-21T04:53:47;3.65;;;2.75;;
70832;SDS011;71099;59.528;17.886;2023-11-21T04:56:12;2.80;;;1.83;;
70832;SDS011;71099;59.528;17.886;2023-11-21T04:58:37;2.35;;;2.15;;
70832;SDS011;71099;59.528;17.886;2023-11-21T05:01:05;3.88;;;1.63;;
70832;SDS011;71099;59.528;17.886;2023-11-21T05:03:31;2.08;;;1.88;;
70832;SDS011;71099;59.528;17.886;2023-11-21T05:05:57;4.50;;;1.77;;
70832;SDS011;71099;59.528;17.886;2023-11-21T05:08:22;1.85;;;1.70;;
70832;SDS011;71099;59.528;17.886;2023-11-21T05:10:47;3.83;;;1.65;;
70832;SDS011;71099;59.528;17.886;2023-11-21T05:13:14;2.45;;;2.20;;
70832;SDS011;71099;59.528;17.886;2023-11-21T05:15:42;2.00;;;1.75;;
70832;SDS011;71099;59.528;17.886;2023-11-21T05:18:09;3.72;;;2.63;;
70832;SDS011;71099;59.528;17.886;2023-11-21T05:20:35;2.13;;;1.80;;
70832;SDS011;71099;59.528;17.886;2023-11-21T05:23:01;3.53;;;1.85;;
70832;SDS011;71099;59.528;17.886;2023-11-21T05:25:26;4.53;;;2.00;;
70832;SDS011;71099;59.528;17.886;2023-11-21T05:27:52;2.88;;;2.25;;
70832;SDS011;71099;59.528;17.886;2023-11-21T05:30:19;3.33;;;2.53;;
70832;SDS011;71099;59.528;17.886;2023-11-21T05:32:46;5.70;;;2.22;;
70832;SDS011;71099;59.528;17.886;2023-11-21T05:35:11;5.15;;;2.53;;
70832;SDS011;71099;59.528;17.886;2023-11-21T05:37:41;4.32;;;2.70;;
70832;SDS011;71099;59.528;17.886;2023-11-21T05:40:07;4.25;;;2.90;;
70832;SDS011;71099;59.528;17.886;2023-11-21T05:42:34;2.55;;;2.13;;
70832;SDS011;71099;59.528;17.886;2023-11-21T05:45:00;5.60;;;2.17;;
70832;SDS011;71099;59.528;17.886;2023-11-21T05:47:39;2.83;;;2.22;;
70832;SDS011;71099;59.528;17.886;2023-11-21T05:50:06;3.08;;;2.25;;
70832;SDS011;71099;59.528;17.886;2023-11-21T05:52:37;3.83;;;2.53;;
70832;SDS011;71099;59.528;17.886;2023-11-21T05:55:05;4.18;;;2.88;;
70832;SDS011;71099;59.528;17.886;2023-11-21T05:57:32;4.45;;;2.40;;
70832;SDS011;71099;59.528;17.886;2023-11-21T06:00:05;3.72;;;2.38;;
70832;SDS011;71099;59.528;17.886;2023-11-21T06:02:37;3.67;;;2.60;;
70832;SDS011;71099;59.528;17.886;2023-11-21T06:05:03;5.60;;;2.63;;
70832;SDS011;71099;59.528;17.886;2023-11-21T06:07:29;3.50;;;2.20;;
70832;SDS011;71099;59.528;17.886;2023-11-21T06:09:54;3.72;;;2.85;;
70832;SDS011;71099;59.528;17.886;2023-11-21T06:12:20;3.40;;;2.42;;
70832;SDS011;71099;59.528;17.886;2023-11-21T06:14:45;6.40;;;2.53;;
70832;SDS011;71099;59.528;17.886;2023-11-21T06:17:11;4.53;;;2.42;;
70832;SDS011;71099;59.528;17.886;2023-11-21T06:19:36;5.28;;;2.47;;
70832;SDS011;71099;59.528;17.886;2023-11-21T06:22:02;6.68;;;3.50;;
70832;SDS011;71099;59.528;17.886;2023-11-21T06:24:27;7.53;;;4.13;;
70832;SDS011;71099;59.528;17.886;2023-11-21T06:26:53;4.68;;;2.90;;
70832;SDS011;71099;59.528;17.886;2023-11-21T06:29:18;6.38;;;3.00;;
70832;SDS011;71099;59.528;17.886;2023-11-21T06:31:44;3.15;;;2.60;;
70832;SDS011;71099;59.528;17.886;2023-11-21T06:34:09;6.90;;;3.10;;
70832;SDS011;71099;59.528;17.886;2023-11-21T06:36:35;6.40;;;3.53;;
70832;SDS011;71099;59.528;17.886;2023-11-21T06:39:01;3.55;;;2.97;;
70832;SDS011;71099;59.528;17.886;2023-11-21T06:41:26;5.15;;;3.33;;
70832;SDS011;71099;59.528;17.886;2023-11-21T06:43:52;5.80;;;3.22;;
70832;SDS011;71099;59.528;17.886;2023-11-21T06:46:18;4.75;;;3.53;;
70832;SDS011;71099;59.528;17.886;2023-11-21T06:48:44;6.05;;;3.53;;
70832;SDS011;71099;59.528;17.886;2023-11-21T06:51:10;4.45;;;3.00;;
70832;SDS011;71099;59.528;17.886;2023-11-21T06:53:36;7.95;;;3.42;;
70832;SDS011;71099;59.528;17.886;2023-11-21T06:56:02;5.60;;;3.00;;
70832;SDS011;71099;59.528;17.886;2023-11-21T06:58:28;5.57;;;3.20;;
70832;SDS011;71099;59.528;17.886;2023-11-21T07:00:54;8.02;;;4.38;;
70832;SDS011;71099;59.528;17.886;2023-11-21T07:03:19;4.80;;;3.30;;
70832;SDS011;71099;59.528;17.886;2023-11-21T07:05:45;5.40;;;3.28;;
70832;SDS011;71099;59.528;17.886;2023-11-21T07:08:10;5.00;;;3.83;;
70832;SDS011;71099;59.528;17.886;2023-11-21T07:10:37;5.57;;;3.28;;
70832;SDS011;71099;59.528;17.886;2023-11-21T07:13:03;7.47;;;3.63;;
70832;SDS011;71099;59.528;17.886;2023-11-21T07:15:28;7.75;;;4.10;;
70832;SDS011;71099;59.528;17.886;2023-11-21T07:17:54;5.65;;;3.95;;
70832;SDS011;71099;59.528;17.886;2023-11-21T07:20:19;8.57;;;3.72;;
70832;SDS011;71099;59.528;17.886;2023-11-21T07:22:46;7.60;;;3.92;;
70832;SDS011;71099;59.528;17.886;2023-11-21T07:25:11;8.05;;;4.05;;
70832;SDS011;71099;59.528;17.886;2023-11-21T07:27:37;6.38;;;3.97;;
70832;SDS011;71099;59.528;17.886;2023-11-21T07:30:03;5.50;;;4.03;;
70832;SDS011;71099;59.528;17.886;2023-11-21T07:32:30;4.22;;;3.70;;
70832;SDS011;71099;59.528;17.886;2023-11-21T07:34:56;7.13;;;5.05;;
70832;SDS011;71099;59.528;17.886;2023-11-21T07:37:23;7.50;;;5.03;;
70832;SDS011;71099;59.528;17.886;2023-11-21T07:39:48;6.43;;;4.25;;
70832;SDS011;71099;59.528;17.886;2023-11-21T07:42:14;8.40;;;4.78;;
70832;SDS011;71099;59.528;17.886;2023-11-21T07:44:39;9.35;;;4.80;;
70832;SDS011;71099;59.528;17.886;2023-11-21T07:47:05;7.22;;;4.57;;
70832;SDS011;71099;59.528;17.886;2023-11-21T07:49:30;7.85;;;4.88;;
70832;SDS011;71099;59.528;17.886;2023-11-21T07:51:55;7.53;;;4.70;;
70832;SDS011;71099;59.528;17.886;2023-11-21T07:54:21;8.32;;;5.30;;
70832;SDS011;71099;59.528;17.886;2023-11-21T07:56:46;8.75;;;4.88;;
70832;SDS011;71099;59.528;17.886;2023-11-21T07:59:12;8.13;;;4.97;;
70832;SDS011;71099;59.528;17.886;2023-11-21T08:01:39;9.77;;;5.00;;
70832;SDS011;71099;59.528;17.886;2023-11-21T08:04:05;6.18;;;4.47;;
70832;SDS011;71099;59.528;17.886;2023-11-21T08:06:31;8.50;;;4.75;;
70832;SDS011;71099;59.528;17.886;2023-11-21T08:08:58;5.38;;;4.75;;
70832;SDS011;71099;59.528;17.886;2023-11-21T08:11:23;9.55;;;4.03;;
70832;SDS011;71099;59.528;17.886;2023-11-21T08:13:49;6.72;;;4.07;;
70832;SDS011;71099;59.528;17.886;2023-11-21T08:16:14;10.27;;;4.60;;
70832;SDS011;71099;59.528;17.886;2023-11-21T08:18:41;5.75;;;4.03;;
70832;SDS011;71099;59.528;17.886;2023-11-21T08:21:07;6.40;;;4.13;;
70832;SDS011;71099;59.528;17.886;2023-11-21T08:23:33;6.25;;;4.80;;
70832;SDS011;71099;59.528;17.886;2023-11-21T08:25:59;7.70;;;3.75;;
70832;SDS011;71099;59.528;17.886;2023-11-21T08:28:25;4.85;;;3.30;;
70832;SDS011;71099;59.528;17.886;2023-11-21T08:30:53;5.88;;;4.05;;
70832;SDS011;71099;59.528;17.886;2023-11-21T08:33:21;7.90;;;4.18;;
70832;SDS011;71099;59.528;17.886;2023-11-21T08:35:46;10.48;;;3.67;;
70832;SDS011;71099;59.528;17.886;2023-11-21T08:38:12;4.88;;;4.20;;
70832;SDS011;71099;59.528;17.886;2023-11-21T08:40:38;4.43;;;3.00;;
70832;SDS011;71099;59.528;17.886;2023-11-21T08:43:03;4.35;;;3.13;;
70832;SDS011;71099;59.528;17.886;2023-11-21T08:45:33;3.85;;;2.47;;
70832;SDS011;71099;59.528;17.886;2023-11-21T08:47:59;2.60;;;2.40;;
70832;SDS011;71099;59.528;17.886;2023-11-21T08:50:25;3.90;;;2.65;;
70832;SDS011;71099;59.528;17.886;2023-11-21T08:52:50;3.50;;;2.67;;
70832;SDS011;71099;59.528;17.886;2023-11-21T08:55:16;4.00;;;2.85;;
70832;SDS011;71099;59.528;17.886;2023-11-21T08:57:43;3.83;;;2.45;;
70832;SDS011;71099;59.528;17.886;2023-11-21T09:00:10;3.22;;;2.28;;
70832;SDS011;71099;59.528;17.886;2023-11-21T09:02:39;4.90;;;2.42;;
70832;SDS011;71099;59.528;17.886;2023-11-21T09:05:07;4.75;;;3.35;;
70832;SDS011;71099;59.528;17.886;2023-11-21T09:07:34;4.90;;;2.78;;
70832;SDS011;71099;59.528;17.886;2023-11-21T09:10:00;3.30;;;2.47;;
70832;SDS011;71099;59.528;17.886;2023-11-21T09:12:25;4.38;;;2.25;;
70832;SDS011;71099;59.528;17.886;2023-11-21T09:14:51;4.45;;;2.88;;
70832;SDS011;71099;59.528;17.886;2023-11-21T09:17:16;3.13;;;2.83;;
70832;SDS011;71099;59.528;17.886;2023-11-21T09:19:42;4.43;;;2.97;;
70832;SDS011;71099;59.528;17.886;2023-11-21T09:22:16;3.78;;;2.50;;
70832;SDS011;71099;59.528;17.886;2023-11-21T09:24:42;7.80;;;2.90;;
70832;SDS011;71099;59.528;17.886;2023-11-21T09:27:08;3.80;;;3.00;;
70832;SDS011;71099;59.528;17.886;2023-11-21T09:29:34;3.97;;;3.00;;
70832;SDS011;71099;59.528;17.886;2023-11-21T09:32:00;5.28;;;3.95;;
70832;SDS011;71099;59.528;17.886;2023-11-21T09:34:26;4.07;;;3.17;;
70832;SDS011;71099;59.528;17.886;2023-11-21T09:36:52;7.18;;;3.05;;
70832;SDS011;71099;59.528;17.886;2023-11-21T09:39:18;4.50;;;2.95;;
70832;SDS011;71099;59.528;17.886;2023-11-21T09:41:44;5.38;;;3.38;;
70832;SDS011;71099;59.528;17.886;2023-11-21T09:44:17;5.50;;;3.40;;
70832;SDS011;71099;59.528;17.886;2023-11-21T09:46:43;9.73;;;5.00;;
70832;SDS011;71099;59.528;17.886;2023-11-21T09:49:13;5.90;;;4.50;;
70832;SDS011;71099;59.528;17.886;2023-11-21T09:51:42;5.90;;;4.00;;
70832;SDS011;71099;59.528;17.886;2023-11-21T09:54:09;4.78;;;3.67;;
70832;SDS011;71099;59.528;17.886;2023-11-21T09:56:37;4.95;;;3.83;;
70832;SDS011;71099;59.528;17.886;2023-11-21T09:59:03;5.85;;;3.42;;
70832;SDS011;71099;59.528;17.886;2023-11-21T10:01:32;4.40;;;3.08;;
70832;SDS011;71099;59.528;17.886;2023-11-21T10:03:58;6.13;;;4.15;;
70832;SDS011;71099;59.528;17.886;2023-11-21T10:06:24;4.90;;;3.80;;
70832;SDS011;71099;59.528;17.886;2023-11-21T10:08:52;4.57;;;3.45;;
70832;SDS011;71099;59.528;17.886;2023-11-21T10:11:20;4.55;;;2.97;;
70832;SDS011;71099;59.528;17.886;2023-11-21T10:13:54;4.47;;;3.95;;
70832;SDS011;71099;59.528;17.886;2023-11-21T10:16:22;8.88;;;4.88;;
70832;SDS011;71099;59.528;17.886;2023-11-21T10:18:51;6.30;;;3.85;;
70832;SDS011;71099;59.528;17.886;2023-11-21T10:21:20;6.25;;;3.55;;
70832;SDS011;71099;59.528;17.886;2023-11-21T10:23:46;5.28;;;4.00;;
70832;SDS011;71099;59.528;17.886;2023-11-21T10:26:12;5.05;;;3.78;;
70832;SDS011;71099;59.528;17.886;2023-11-21T10:29:00;5.40;;;3.28;;
70832;SDS011;71099;59.528;17.886;2023-11-21T10:31:35;7.78;;;4.63;;
70832;SDS011;71099;59.528;17.886;2023-11-21T10:34:13;6.03;;;3.78;;
70832;SDS011;71099;59.528;17.886;2023-11-21T10:36:40;4.35;;;3.72;;
70832;SDS011;71099;59.528;17.886;2023-11-21T10:39:05;4.72;;;3.58;;
70832;SDS011;71099;59.528;17.886;2023-11-21T10:41:30;5.00;;;3.65;;
70832;SDS011;71099;59.528;17.886;2023-11-21T10:43:57;7.35;;;5.80;;
70832;SDS011;71099;59.528;17.886;2023-11-21T10:46:22;7.25;;;4.88;;
70832;SDS011;71099;59.528;17.886;2023-11-21T10:48:54;6.70;;;3.70;;
70832;SDS011;71099;59.528;17.886;2023-11-21T10:51:21;6.38;;;4.80;;
70832;SDS011;71099;59.528;17.886;2023-11-21T10:53:47;8.23;;;4.82;;
70832;SDS011;71099;59.528;17.886;2023-11-21T10:56:13;8.18;;;5.75;;
70832;SDS011;71099;59.528;17.886;2023-11-21T10:58:45;6.03;;;4.35;;
70832;SDS011;71099;59.528;17.886;2023-11-21T11:01:10;6.68;;;4.40;;
70832;SDS011;71099;59.528;17.886;2023-11-21T11:03:39;6.07;;;4.85;;
70832;SDS011;71099;59.528;17.886;2023-11-21T11:06:06;6.75;;;4.70;;
70832;SDS011;71099;59.528;17.886;2023-11-21T11:08:36;6.45;;;4.05;;
70832;SDS011;71099;59.528;17.886;2023-11-21T11:11:03;7.85;;;4.63;;
70832;SDS011;71099;59.528;17.886;2023-11-21T11:13:30;6.25;;;4.45;;
70832;SDS011;71099;59.528;17.886;2023-11-21T11:15:57;9.45;;;4.38;;
70832;SDS011;71099;59.528;17.886;2023-11-21T11:18:30;9.68;;;4.47;;
70832;SDS011;71099;59.528;17.886;2023-11-21T11:21:01;7.22;;;4.53;;
70832;SDS011;71099;59.528;17.886;2023-11-21T11:29:08;10.25;;;5.13;;
70832;SDS011;71099;59.528;17.886;2023-11-21T11:38:03;5.30;;;3.72;;
70832;SDS011;71099;59.528;17.886;2023-11-21T11:40:38;7.25;;;4.28;;
70832;SDS011;71099;59.528;17.886;2023-11-21T11:43:05;4.85;;;3.72;;
70832;SDS011;71099;59.528;17.886;2023-11-21T11:45:32;4.85;;;3.45;;
70832;SDS011;71099;59.528;17.886;2023-11-21T11:48:02;7.35;;;3.35;;
70832;SDS011;71099;59.528;17.886;2023-11-21T11:50:28;4.50;;;3.35;;
70832;SDS011;71099;59.528;17.886;2023-11-21T11:52:55;4.65;;;2.70;;
70832;SDS011;71099;59.528;17.886;2023-11-21T11:55:36;3.53;;;2.63;;
70832;SDS011;71099;59.528;17.886;2023-11-21T11:58:04;4.80;;;3.22;;
70832;SDS011;71099;59.528;17.886;2023-11-21T12:00:33;7.50;;;2.80;;
70832;SDS011;71099;59.528;17.886;2023-11-21T12:03:03;3.70;;;2.90;;
70832;SDS011;71099;59.528;17.886;2023-11-21T12:05:30;5.00;;;3.08;;
70832;SDS011;71099;59.528;17.886;2023-11-21T12:08:10;5.68;;;3.50;;
70832;SDS011;71099;59.528;17.886;2023-11-21T12:10:37;9.45;;;4.85;;
70832;SDS011;71099;59.528;17.886;2023-11-21T12:13:08;5.03;;;2.63;;
70832;SDS011;71099;59.528;17.886;2023-11-21T12:15:37;8.30;;;2.97;;
70832;SDS011;71099;59.528;17.886;2023-11-21T12:18:03;5.22;;;2.30;;
70832;SDS011;71099;59.528;17.886;2023-11-21T12:20:29;6.40;;;2.60;;
70832;SDS011;71099;59.528;17.886;2023-11-21T12:22:57;3.75;;;2.83;;
70832;SDS011;71099;59.528;17.886;2023-11-21T12:25:29;2.97;;;2.45;;
70832;SDS011;71099;59.528;17.886;2023-11-21T12:27:59;3.22;;;1.80;;
70832;SDS011;71099;59.528;17.886;2023-11-21T12:30:26;4.00;;;1.50;;
70832;SDS011;71099;59.528;17.886;2023-11-21T12:32:56;3.47;;;1.48;;
70832;SDS011;71099;59.528;17.886;2023-11-21T12:35:23;1.88;;;1.42;;
70832;SDS011;71099;59.528;17.886;2023-11-21T12:37:51;1.27;;;1.00;;
70832;SDS011;71099;59.528;17.886;2023-11-21T12:40:17;1.13;;;1.02;;
70832;SDS011;71099;59.528;17.886;2023-11-21T12:42:45;1.38;;;1.13;;
70832;SDS011;71099;59.528;17.886;2023-11-21T12:47:43;2.55;;;1.30;;
70832;SDS011;71099;59.528;17.886;2023-11-21T12:50:09;1.33;;;1.08;;
70832;SDS011;71099;59.528;17.886;2023-11-21T12:52:44;1.60;;;1.10;;
70832;SDS011;71099;59.528;17.886;2023-11-21T12:55:15;1.08;;;0.98;;
70832;SDS011;71099;59.528;17.886;2023-11-21T12:57:47;1.83;;;1.08;;
70832;SDS011;71099;59.528;17.886;2023-11-21T13:00:17;0.93;;;0.80;;
70832;SDS011;71099;59.528;17.886;2023-11-21T13:02:57;2.55;;;1.20;;
70832;SDS011;71099;59.528;17.886;2023-11-21T13:05:27;2.45;;;1.48;;
70832;SDS011;71099;59.528;17.886;2023-11-21T13:07:54;2.55;;;1.05;;
70832;SDS011;71099;59.528;17.886;2023-11-21T13:10:25;3.55;;;2.55;;
70832;SDS011;71099;59.528;17.886;2023-11-21T13:12:54;1.48;;;1.38;;
70832;SDS011;71099;59.528;17.886;2023-11-21T13:15:22;1.63;;;0.90;;
70832;SDS011;71099;59.528;17.886;2023-11-21T13:17:48;1.30;;;1.00;;
70832;SDS011;71099;59.528;17.886;2023-11-21T13:20:15;1.35;;;0.80;;
70832;SDS011;71099;59.528;17.886;2023-11-21T13:22:49;1.98;;;1.02;;
70832;SDS011;71099;59.528;17.886;2023-11-21T13:25:17;1.17;;;0.82;;
70832;SDS011;71099;59.528;17.886;2023-11-21T13:27:45;2.08;;;1.10;;
70832;SDS011;71099;59.528;17.886;2023-11-21T13:30:14;2.17;;;1.38;;
70832;SDS011;71099;59.528;17.886;2023-11-21T13:32:43;1.35;;;1.00;;
70832;SDS011;71099;59.528;17.886;2023-11-21T13:35:11;2.78;;;1.33;;
70832;SDS011;71099;59.528;17.886;2023-11-21T13:37:46;1.38;;;1.00;;
70832;SDS011;71099;59.528;17.886;2023-11-21T13:40:14;1.05;;;0.93;;
70832;SDS011;71099;59.528;17.886;2023-11-21T13:42:44;1.65;;;1.02;;
70832;SDS011;71099;59.528;17.886;2023-11-21T13:45:10;1.58;;;0.95;;
70832;SDS011;71099;59.528;17.886;2023-11-21T13:47:37;1.27;;;0.93;;
70832;SDS011;71099;59.528;17.886;2023-11-21T13:50:05;4.78;;;2.60;;
70832;SDS011;71099;59.528;17.886;2023-11-21T13:52:41;0.95;;;0.90;;
70832;SDS011;71099;59.528;17.886;2023-11-21T13:55:07;1.60;;;1.05;;
70832;SDS011;71099;59.528;17.886;2023-11-21T13:57:39;0.88;;;0.82;;
70832;SDS011;71099;59.528;17.886;2023-11-21T14:00:04;1.88;;;1.00;;
70832;SDS011;71099;59.528;17.886;2023-11-21T14:02:36;0.95;;;0.80;;
70832;SDS011;71099;59.528;17.886;2023-11-21T14:05:07;0.73;;;0.70;;
70832;SDS011;71099;59.528;17.886;2023-11-21T14:07:34;1.25;;;0.98;;
70832;SDS011;71099;59.528;17.886;2023-11-21T14:10:03;1.38;;;0.93;;
70832;SDS011;71099;59.528;17.886;2023-11-21T14:12:31;1.63;;;1.10;;
70832;SDS011;71099;59.528;17.886;2023-11-21T14:14:59;1.60;;;1.00;;
70832;SDS011;71099;59.528;17.886;2023-11-21T14:17:26;1.20;;;1.08;;
70832;SDS011;71099;59.528;17.886;2023-11-21T14:19:52;1.38;;;0.95;;
70832;SDS011;71099;59.528;17.886;2023-11-21T14:22:17;1.50;;;0.82;;
70832;SDS011;71099;59.528;17.886;2023-11-21T14:24:43;1.60;;;1.23;;
70832;SDS011;71099;59.528;17.886;2023-11-21T14:27:12;1.48;;;0.90;;
70832;SDS011;71099;59.528;17.886;2023-11-21T14:29:38;2.40;;;0.88;;
70832;SDS011;71099;59.528;17.886;2023-11-21T14:32:07;1.92;;;1.80;;
70832;SDS011;71099;59.528;17.886;2023-11-21T14:34:33;3.10;;;1.65;;
70832;SDS011;71099;59.528;17.886;2023-11-21T14:36:58;3.05;;;1.60;;
70832;SDS011;71099;59.528;17.886;2023-11-21T14:39:23;3.08;;;1.60;;
70832;SDS011;71099;59.528;17.886;2023-11-21T14:41:52;2.50;;;1.67;;
70832;SDS011;71099;59.528;17.886;2023-11-21T14:44:19;2.72;;;2.05;;
70832;SDS011;71099;59.528;17.886;2023-11-21T14:46:45;3.05;;;2.10;;
70832;SDS011;71099;59.528;17.886;2023-11-21T14:49:14;3.58;;;2.20;;